sensor_id;sensor_type;location;lat;lon;timestamp;P1;durP1;ratioP1;P2;durP2;ratioP2
25169;SDS011;13129;48.012;10.352;2022-10-18T03:32:37;10.15;;;5.97;;
25169;SDS011;13129;48.012;10.352;2022-10-18T03:35:03;9.13;;;5.70;;
25169;SDS011;13129;48.012;10.352;2022-10-18T03:37:30;5.82;;;5.22;;
25169;SDS011;13129;48.012;10.352;2022-10-18T03:39:56;10.07;;;5.97;;
25169;SDS011;13129;48.012;10.352;2022-10-18T03:42:21;7.38;;;5.93;;
25169;SDS011;13129;48.012;10.352;2022-10-18T03:44:47;6.95;;;6.28;;
25169;SDS011;13129;48.012;10.352;2022-10-18T03:47:13;8.70;;;5.65;;
25169;SDS011;13129;48.012;10.352;2022-10-18T03:49:38;7.60;;;5.35;;
25169;SDS011;13129;48.012;10.352;2022-10-18T03:52:04;6.22;;;5.35;;
25169;SDS011;13129;48.012;10.352;2022-10-18T03:54:30;7.30;;;5.32;;
25169;SDS011;13129;48.012;10.352;2022-10-18T03:56:55;8.05;;;5.63;;
25169;SDS011;13129;48.012;10.352;2022-10-18T03:59:21;7.20;;;5.15;;
25169;SDS011;13129;48.012;10.352;2022-10-18T04:01:47;5.60;;;5.10;;
25169;SDS011;13129;48.012;10.352;2022-10-18T04:04:13;6.07;;;5.43;;
25169;SDS011;13129;48.012;10.352;2022-10-18T04:06:39;7.15;;;5.65;;
25169;SDS011;13129;48.012;10.352;2022-10-18T04:09:05;5.63;;;4.60;;
25169;SDS011;13129;48.012;10.352;2022-10-18T04:11:31;5.60;;;4.75;;
25169;SDS011;13129;48.012;10.352;2022-10-18T04:13:56;5.40;;;4.65;;
25169;SDS011;13129;48.012;10.352;2022-10-18T04:16:22;8.25;;;5.93;;
25169;SDS011;13129;48.012;10.352;2022-10-18T04:18:48;6.18;;;5.10;;
25169;SDS011;13129;48.012;10.352;2022-10-18T04:21:14;8.48;;;5.95;;
25169;SDS011;13129;48.012;10.352;2022-10-18T04:23:40;6.55;;;5.57;;
25169;SDS011;13129;48.012;10.352;2022-10-18T04:26:08;6.38;;;5.43;;
25169;SDS011;13129;48.012;10.352;2022-10-18T04:28:34;8.98;;;5.40;;
25169;SDS011;13129;48.012;10.352;2022-10-18T04:31:04;6.47;;;5.70;;
25169;SDS011;13129;48.012;10.352;2022-10-18T04:33:30;9.77;;;5.40;;
25169;SDS011;13129;48.012;10.352;2022-10-18T04:35:56;8.35;;;5.47;;
25169;SDS011;13129;48.012;10.352;2022-10-18T04:38:22;5.95;;;5.28;;
25169;SDS011;13129;48.012;10.352;2022-10-18T04:40:53;5.32;;;4.68;;
25169;SDS011;13129;48.012;10.352;2022-10-18T04:43:19;6.28;;;5.40;;
25169;SDS011;13129;48.012;10.352;2022-10-18T04:45:46;6.45;;;5.70;;
25169;SDS011;13129;48.012;10.352;2022-10-18T04:48:13;5.88;;;5.30;;
25169;SDS011;13129;48.012;10.352;2022-10-18T04:50:39;6.03;;;5.00;;
25169;SDS011;13129;48.012;10.352;2022-10-18T04:53:08;6.32;;;5.72;;
25169;SDS011;13129;48.012;10.352;2022-10-18T04:55:34;7.30;;;5.30;;
25169;SDS011;13129;48.012;10.352;2022-10-18T04:57:59;6.18;;;5.57;;
25169;SDS011;13129;48.012;10.352;2022-10-18T05:00:25;8.52;;;5.60;;
25169;SDS011;13129;48.012;10.352;2022-10-18T05:02:55;8.23;;;5.38;;
25169;SDS011;13129;48.012;10.352;2022-10-18T05:05:21;8.38;;;5.57;;
25169;SDS011;13129;48.012;10.352;2022-10-18T05:07:48;6.95;;;5.50;;
25169;SDS011;13129;48.012;10.352;2022-10-18T05:10:14;8.70;;;5.63;;
25169;SDS011;13129;48.012;10.352;2022-10-18T05:12:40;9.00;;;5.32;;
25169;SDS011;13129;48.012;10.352;2022-10-18T05:15:07;5.50;;;4.88;;
25169;SDS011;13129;48.012;10.352;2022-10-18T05:17:34;6.70;;;6.00;;
25169;SDS011;13129;48.012;10.352;2022-10-18T05:19:59;5.28;;;4.70;;
25169;SDS011;13129;48.012;10.352;2022-10-18T05:22:25;7.22;;;5.30;;
25169;SDS011;13129;48.012;10.352;2022-10-18T05:24:51;10.00;;;5.30;;
25169;SDS011;13129;48.012;10.352;2022-10-18T05:27:17;5.25;;;4.75;;
25169;SDS011;13129;48.012;10.352;2022-10-18T05:29:42;7.22;;;5.20;;
25169;SDS011;13129;48.012;10.352;2022-10-18T05:32:17;8.70;;;5.55;;
25169;SDS011;13129;48.012;10.352;2022-10-18T05:34:48;8.70;;;6.00;;
25169;SDS011;13129;48.012;10.352;2022-10-18T05:37:34;8.23;;;6.43;;
25169;SDS011;13129;48.012;10.352;2022-10-18T05:40:03;7.95;;;5.90;;
25169;SDS011;13129;48.012;10.352;2022-10-18T05:42:32;7.47;;;6.10;;
25169;SDS011;13129;48.012;10.352;2022-10-18T06:07:33;8.68;;;6.20;;
25169;SDS011;13129;48.012;10.352;2022-10-18T06:10:08;8.10;;;6.22;;
25169;SDS011;13129;48.012;10.352;2022-10-18T06:13:12;6.82;;;6.13;;
25169;SDS011;13129;48.012;10.352;2022-10-18T06:19:11;10.52;;;6.55;;
25169;SDS011;13129;48.012;10.352;2022-10-18T06:22:00;9.50;;;6.40;;
25169;SDS011;13129;48.012;10.352;2022-10-18T06:24:26;7.78;;;6.22;;
25169;SDS011;13129;48.012;10.352;2022-10-18T06:26:52;8.35;;;6.65;;
25169;SDS011;13129;48.012;10.352;2022-10-18T06:29:18;8.20;;;6.13;;
25169;SDS011;13129;48.012;10.352;2022-10-18T06:31:43;9.52;;;6.22;;
25169;SDS011;13129;48.012;10.352;2022-10-18T06:34:09;8.02;;;6.85;;
25169;SDS011;13129;48.012;10.352;2022-10-18T06:36:35;8.27;;;6.43;;
25169;SDS011;13129;48.012;10.352;2022-10-18T06:39:00;8.68;;;7.00;;
25169;SDS011;13129;48.012;10.352;2022-10-18T06:41:26;7.63;;;6.82;;
25169;SDS011;13129;48.012;10.352;2022-10-18T06:43:52;7.43;;;6.72;;
25169;SDS011;13129;48.012;10.352;2022-10-18T06:46:21;8.88;;;6.25;;
25169;SDS011;13129;48.012;10.352;2022-10-18T06:48:50;6.57;;;5.95;;
25169;SDS011;13129;48.012;10.352;2022-10-18T06:51:16;7.53;;;6.70;;
25169;SDS011;13129;48.012;10.352;2022-10-18T06:53:42;10.70;;;7.93;;
25169;SDS011;13129;48.012;10.352;2022-10-18T06:56:09;9.35;;;7.95;;
25169;SDS011;13129;48.012;10.352;2022-10-18T06:58:36;9.95;;;7.50;;
25169;SDS011;13129;48.012;10.352;2022-10-18T07:01:06;10.52;;;8.85;;
25169;SDS011;13129;48.012;10.352;2022-10-18T07:03:36;9.52;;;8.20;;
25169;SDS011;13129;48.012;10.352;2022-10-18T07:06:06;12.35;;;10.18;;
25169;SDS011;13129;48.012;10.352;2022-10-18T07:08:33;13.70;;;8.95;;
25169;SDS011;13129;48.012;10.352;2022-10-18T07:10:59;13.80;;;8.80;;
25169;SDS011;13129;48.012;10.352;2022-10-18T07:13:29;10.68;;;7.43;;
25169;SDS011;13129;48.012;10.352;2022-10-18T07:16:05;9.45;;;7.93;;
25169;SDS011;13129;48.012;10.352;2022-10-18T07:18:33;50.17;;;20.15;;
25169;SDS011;13129;48.012;10.352;2022-10-18T07:21:04;11.45;;;8.38;;
25169;SDS011;13129;48.012;10.352;2022-10-18T07:23:35;21.05;;;10.18;;
25169;SDS011;13129;48.012;10.352;2022-10-18T07:26:04;13.10;;;7.40;;
25169;SDS011;13129;48.012;10.352;2022-10-18T07:28:42;11.70;;;6.75;;
25169;SDS011;13129;48.012;10.352;2022-10-18T07:31:13;17.80;;;9.40;;
25169;SDS011;13129;48.012;10.352;2022-10-18T07:33:45;22.58;;;10.70;;
25169;SDS011;13129;48.012;10.352;2022-10-18T07:36:11;19.60;;;10.27;;
25169;SDS011;13129;48.012;10.352;2022-10-18T07:38:37;16.10;;;8.65;;
25169;SDS011;13129;48.012;10.352;2022-10-18T07:41:04;19.67;;;9.00;;
25169;SDS011;13129;48.012;10.352;2022-10-18T07:43:31;11.23;;;7.57;;
25169;SDS011;13129;48.012;10.352;2022-10-18T07:45:58;13.65;;;8.43;;
25169;SDS011;13129;48.012;10.352;2022-10-18T07:48:25;11.70;;;6.72;;
25169;SDS011;13129;48.012;10.352;2022-10-18T07:50:52;9.85;;;6.38;;
25169;SDS011;13129;48.012;10.352;2022-10-18T07:53:18;8.13;;;6.35;;
25169;SDS011;13129;48.012;10.352;2022-10-18T07:55:43;6.88;;;6.25;;
25169;SDS011;13129;48.012;10.352;2022-10-18T07:58:09;8.05;;;6.28;;
25169;SDS011;13129;48.012;10.352;2022-10-18T08:00:36;8.85;;;6.22;;
25169;SDS011;13129;48.012;10.352;2022-10-18T08:03:01;10.48;;;5.97;;
25169;SDS011;13129;48.012;10.352;2022-10-18T08:05:27;6.03;;;5.38;;
25169;SDS011;13129;48.012;10.352;2022-10-18T08:07:53;5.43;;;4.82;;
25169;SDS011;13129;48.012;10.352;2022-10-18T08:10:19;6.15;;;4.75;;
25169;SDS011;13129;48.012;10.352;2022-10-18T08:12:46;5.13;;;4.65;;
25169;SDS011;13129;48.012;10.352;2022-10-18T08:15:12;7.07;;;4.22;;
25169;SDS011;13129;48.012;10.352;2022-10-18T08:17:38;4.68;;;4.20;;
25169;SDS011;13129;48.012;10.352;2022-10-18T08:20:04;4.85;;;4.22;;
25169;SDS011;13129;48.012;10.352;2022-10-18T08:22:30;6.47;;;4.70;;
25169;SDS011;13129;48.012;10.352;2022-10-18T08:24:55;6.80;;;4.10;;
25169;SDS011;13129;48.012;10.352;2022-10-18T08:27:21;4.90;;;4.22;;
25169;SDS011;13129;48.012;10.352;2022-10-18T08:29:49;6.40;;;4.00;;
25169;SDS011;13129;48.012;10.352;2022-10-18T08:32:16;6.72;;;4.63;;
25169;SDS011;13129;48.012;10.352;2022-10-18T08:34:41;7.20;;;4.40;;
25169;SDS011;13129;48.012;10.352;2022-10-18T08:37:07;6.45;;;4.07;;
25169;SDS011;13129;48.012;10.352;2022-10-18T08:39:33;5.32;;;4.32;;
25169;SDS011;13129;48.012;10.352;2022-10-18T08:44:30;7.25;;;4.10;;
25169;SDS011;13129;48.012;10.352;2022-10-18T08:46:58;5.95;;;3.45;;
25169;SDS011;13129;48.012;10.352;2022-10-18T08:49:48;5.65;;;3.45;;
25169;SDS011;13129;48.012;10.352;2022-10-18T08:55:11;4.88;;;3.70;;
25169;SDS011;13129;48.012;10.352;2022-10-18T08:57:38;4.68;;;3.97;;
25169;SDS011;13129;48.012;10.352;2022-10-18T09:00:10;4.00;;;3.70;;
25169;SDS011;13129;48.012;10.352;2022-10-18T09:03:00;4.18;;;3.72;;
25169;SDS011;13129;48.012;10.352;2022-10-18T09:14:56;4.03;;;3.63;;
25169;SDS011;13129;48.012;10.352;2022-10-18T09:20:54;4.35;;;3.40;;
25169;SDS011;13129;48.012;10.352;2022-10-18T09:26:54;3.70;;;3.38;;
25169;SDS011;13129;48.012;10.352;2022-10-18T09:29:35;6.07;;;3.65;;
25169;SDS011;13129;48.012;10.352;2022-10-18T09:32:44;4.43;;;3.30;;
25169;SDS011;13129;48.012;10.352;2022-10-18T09:36:30;4.00;;;3.58;;
25169;SDS011;13129;48.012;10.352;2022-10-18T09:45:40;4.45;;;3.50;;
25169;SDS011;13129;48.012;10.352;2022-10-18T09:56:02;3.55;;;3.25;;
25169;SDS011;13129;48.012;10.352;2022-10-18T09:58:38;4.88;;;3.45;;
25169;SDS011;13129;48.012;10.352;2022-10-18T10:01:11;4.75;;;2.78;;
25169;SDS011;13129;48.012;10.352;2022-10-18T10:03:40;5.28;;;3.33;;
25169;SDS011;13129;48.012;10.352;2022-10-18T10:09:27;4.80;;;3.00;;
25169;SDS011;13129;48.012;10.352;2022-10-18T10:11:34;4.47;;;3.25;;
25169;SDS011;13129;48.012;10.352;2022-10-18T10:14:21;4.47;;;3.20;;
25169;SDS011;13129;48.012;10.352;2022-10-18T10:17:02;4.18;;;3.20;;
25169;SDS011;13129;48.012;10.352;2022-10-18T10:22:52;3.35;;;3.05;;
25169;SDS011;13129;48.012;10.352;2022-10-18T10:25:30;6.53;;;3.28;;
25169;SDS011;13129;48.012;10.352;2022-10-18T10:28:17;4.03;;;3.45;;
25169;SDS011;13129;48.012;10.352;2022-10-18T10:30:49;6.22;;;3.28;;
25169;SDS011;13129;48.012;10.352;2022-10-18T10:33:32;4.97;;;3.17;;
25169;SDS011;13129;48.012;10.352;2022-10-18T10:36:04;4.95;;;3.10;;
25169;SDS011;13129;48.012;10.352;2022-10-18T10:38:39;4.43;;;2.90;;
25169;SDS011;13129;48.012;10.352;2022-10-18T10:41:13;4.35;;;2.88;;
25169;SDS011;13129;48.012;10.352;2022-10-18T10:43:44;4.32;;;3.47;;
25169;SDS011;13129;48.012;10.352;2022-10-18T10:46:11;4.07;;;2.88;;
25169;SDS011;13129;48.012;10.352;2022-10-18T10:48:49;6.18;;;3.78;;
25169;SDS011;13129;48.012;10.352;2022-10-18T10:51:29;3.50;;;3.03;;
25169;SDS011;13129;48.012;10.352;2022-10-18T10:56:34;3.42;;;3.13;;
25169;SDS011;13129;48.012;10.352;2022-10-18T10:59:06;3.88;;;3.40;;
25169;SDS011;13129;48.012;10.352;2022-10-18T11:01:41;3.25;;;2.95;;
25169;SDS011;13129;48.012;10.352;2022-10-18T11:04:27;4.18;;;2.92;;
25169;SDS011;13129;48.012;10.352;2022-10-18T11:07:12;4.03;;;3.25;;
25169;SDS011;13129;48.012;10.352;2022-10-18T11:10:09;4.67;;;2.90;;
25169;SDS011;13129;48.012;10.352;2022-10-18T11:20:58;4.10;;;3.72;;
25169;SDS011;13129;48.012;10.352;2022-10-18T11:23:38;4.45;;;4.05;;
25169;SDS011;13129;48.012;10.352;2022-10-18T11:43:06;5.15;;;3.47;;
25169;SDS011;13129;48.012;10.352;2022-10-18T11:45:42;5.78;;;3.42;;
25169;SDS011;13129;48.012;10.352;2022-10-18T11:48:25;4.18;;;3.58;;
25169;SDS011;13129;48.012;10.352;2022-10-18T11:54:06;3.60;;;3.00;;
25169;SDS011;13129;48.012;10.352;2022-10-18T11:56:42;4.82;;;3.70;;
25169;SDS011;13129;48.012;10.352;2022-10-18T11:59:27;4.80;;;3.33;;
25169;SDS011;13129;48.012;10.352;2022-10-18T12:04:38;4.80;;;3.35;;
25169;SDS011;13129;48.012;10.352;2022-10-18T12:07:12;6.10;;;3.15;;
25169;SDS011;13129;48.012;10.352;2022-10-18T12:09:42;4.85;;;3.00;;
25169;SDS011;13129;48.012;10.352;2022-10-18T12:15:04;4.55;;;3.13;;
25169;SDS011;13129;48.012;10.352;2022-10-18T12:17:43;4.35;;;2.95;;
25169;SDS011;13129;48.012;10.352;2022-10-18T12:22:59;4.35;;;3.28;;
25169;SDS011;13129;48.012;10.352;2022-10-18T12:25:26;4.20;;;3.28;;
25169;SDS011;13129;48.012;10.352;2022-10-18T12:28:06;3.15;;;2.90;;
25169;SDS011;13129;48.012;10.352;2022-10-18T12:30:59;5.45;;;3.67;;
25169;SDS011;13129;48.012;10.352;2022-10-18T12:33:36;3.95;;;3.50;;
25169;SDS011;13129;48.012;10.352;2022-10-18T12:36:10;4.78;;;3.53;;
25169;SDS011;13129;48.012;10.352;2022-10-18T12:39:02;4.80;;;3.30;;
25169;SDS011;13129;48.012;10.352;2022-10-18T12:41:33;3.40;;;3.10;;
25169;SDS011;13129;48.012;10.352;2022-10-18T12:44:02;6.95;;;3.30;;
25169;SDS011;13129;48.012;10.352;2022-10-18T12:49:23;5.20;;;3.13;;
25169;SDS011;13129;48.012;10.352;2022-10-18T12:52:04;5.45;;;3.42;;
25169;SDS011;13129;48.012;10.352;2022-10-18T12:54:49;5.13;;;3.10;;
25169;SDS011;13129;48.012;10.352;2022-10-18T13:16:30;5.40;;;3.58;;
25169;SDS011;13129;48.012;10.352;2022-10-18T13:19:27;5.30;;;3.28;;
25169;SDS011;13129;48.012;10.352;2022-10-18T13:30:10;4.78;;;3.17;;
25169;SDS011;13129;48.012;10.352;2022-10-18T13:41:03;3.80;;;3.35;;
25169;SDS011;13129;48.012;10.352;2022-10-18T13:43:46;3.25;;;2.95;;
25169;SDS011;13129;48.012;10.352;2022-10-18T13:51:51;5.63;;;3.95;;
25169;SDS011;13129;48.012;10.352;2022-10-18T14:02:12;6.03;;;3.55;;
25169;SDS011;13129;48.012;10.352;2022-10-18T14:07:35;7.30;;;4.20;;
25169;SDS011;13129;48.012;10.352;2022-10-18T14:10:02;4.35;;;3.80;;
25169;SDS011;13129;48.012;10.352;2022-10-18T14:12:42;7.15;;;3.60;;
25169;SDS011;13129;48.012;10.352;2022-10-18T14:15:15;5.03;;;4.00;;
25169;SDS011;13129;48.012;10.352;2022-10-18T14:17:46;5.97;;;3.33;;
25169;SDS011;13129;48.012;10.352;2022-10-18T14:25:40;5.75;;;3.75;;
25169;SDS011;13129;48.012;10.352;2022-10-18T14:28:11;6.18;;;3.85;;
25169;SDS011;13129;48.012;10.352;2022-10-18T14:30:57;6.85;;;3.40;;
25169;SDS011;13129;48.012;10.352;2022-10-18T14:38:50;5.00;;;4.07;;
25169;SDS011;13129;48.012;10.352;2022-10-18T14:43:46;5.85;;;4.45;;
25169;SDS011;13129;48.012;10.352;2022-10-18T14:46:17;7.63;;;4.18;;
25169;SDS011;13129;48.012;10.352;2022-10-18T14:48:54;5.90;;;3.83;;
25169;SDS011;13129;48.012;10.352;2022-10-18T14:51:24;5.25;;;3.33;;
25169;SDS011;13129;48.012;10.352;2022-10-18T14:53:51;3.92;;;3.47;;
25169;SDS011;13129;48.012;10.352;2022-10-18T14:56:22;5.35;;;3.90;;
25169;SDS011;13129;48.012;10.352;2022-10-18T14:58:53;6.90;;;3.42;;
25169;SDS011;13129;48.012;10.352;2022-10-18T15:01:23;5.28;;;3.10;;
25169;SDS011;13129;48.012;10.352;2022-10-18T15:03:54;5.60;;;3.72;;
25169;SDS011;13129;48.012;10.352;2022-10-18T15:06:21;6.55;;;4.10;;
25169;SDS011;13129;48.012;10.352;2022-10-18T15:08:48;5.25;;;3.92;;
25169;SDS011;13129;48.012;10.352;2022-10-18T15:13:45;9.57;;;4.70;;
25169;SDS011;13129;48.012;10.352;2022-10-18T15:16:16;5.55;;;3.97;;
25169;SDS011;13129;48.012;10.352;2022-10-18T15:18:43;5.25;;;3.60;;
25169;SDS011;13129;48.012;10.352;2022-10-18T15:21:28;6.90;;;3.75;;
25169;SDS011;13129;48.012;10.352;2022-10-18T15:23:55;6.85;;;3.90;;
25169;SDS011;13129;48.012;10.352;2022-10-18T15:26:59;7.72;;;5.28;;
25169;SDS011;13129;48.012;10.352;2022-10-18T15:29:47;6.22;;;5.15;;
25169;SDS011;13129;48.012;10.352;2022-10-18T15:32:26;9.07;;;3.90;;
25169;SDS011;13129;48.012;10.352;2022-10-18T15:42:56;7.60;;;4.07;;
25169;SDS011;13129;48.012;10.352;2022-10-18T15:48:01;9.57;;;4.70;;
25169;SDS011;13129;48.012;10.352;2022-10-18T15:58:38;8.10;;;7.07;;
25169;SDS011;13129;48.012;10.352;2022-10-18T16:01:12;6.80;;;5.07;;
25169;SDS011;13129;48.012;10.352;2022-10-18T16:03:50;7.88;;;3.97;;
25169;SDS011;13129;48.012;10.352;2022-10-18T16:06:16;5.05;;;4.50;;
25169;SDS011;13129;48.012;10.352;2022-10-18T16:08:43;4.75;;;4.13;;
25169;SDS011;13129;48.012;10.352;2022-10-18T16:11:18;7.07;;;4.43;;
25169;SDS011;13129;48.012;10.352;2022-10-18T16:13:48;7.72;;;4.03;;
25169;SDS011;13129;48.012;10.352;2022-10-18T16:16:24;6.78;;;3.72;;
25169;SDS011;13129;48.012;10.352;2022-10-18T16:18:51;10.27;;;4.70;;
25169;SDS011;13129;48.012;10.352;2022-10-18T16:21:18;5.28;;;4.00;;
25169;SDS011;13129;48.012;10.352;2022-10-18T16:23:49;6.05;;;4.55;;
25169;SDS011;13129;48.012;10.352;2022-10-18T16:26:18;7.15;;;4.68;;
25169;SDS011;13129;48.012;10.352;2022-10-18T16:28:44;5.93;;;4.50;;
25169;SDS011;13129;48.012;10.352;2022-10-18T16:31:15;6.88;;;4.47;;
25169;SDS011;13129;48.012;10.352;2022-10-18T16:33:43;7.15;;;5.22;;
25169;SDS011;13129;48.012;10.352;2022-10-18T16:36:16;9.23;;;6.00;;
25169;SDS011;13129;48.012;10.352;2022-10-18T16:38:43;9.02;;;4.97;;
25169;SDS011;13129;48.012;10.352;2022-10-18T16:41:10;10.98;;;6.43;;
25169;SDS011;13129;48.012;10.352;2022-10-18T16:43:37;12.13;;;8.23;;
25169;SDS011;13129;48.012;10.352;2022-10-18T16:46:04;11.75;;;5.63;;
25169;SDS011;13129;48.012;10.352;2022-10-18T16:48:31;10.25;;;7.38;;
25169;SDS011;13129;48.012;10.352;2022-10-18T16:50:57;10.32;;;5.65;;
25169;SDS011;13129;48.012;10.352;2022-10-18T16:53:23;14.02;;;5.38;;
25169;SDS011;13129;48.012;10.352;2022-10-18T16:55:54;7.88;;;4.60;;
25169;SDS011;13129;48.012;10.352;2022-10-18T16:58:25;6.72;;;4.88;;
25169;SDS011;13129;48.012;10.352;2022-10-18T17:00:51;4.47;;;4.07;;
25169;SDS011;13129;48.012;10.352;2022-10-18T17:03:19;3.47;;;1.85;;
25169;SDS011;13129;48.012;10.352;2022-10-18T17:05:45;3.08;;;2.15;;
25169;SDS011;13129;48.012;10.352;2022-10-18T17:08:14;2.67;;;1.83;;
25169;SDS011;13129;48.012;10.352;2022-10-18T17:10:48;3.97;;;2.40;;
25169;SDS011;13129;48.012;10.352;2022-10-18T17:13:17;4.53;;;3.72;;
25169;SDS011;13129;48.012;10.352;2022-10-18T17:15:43;6.78;;;4.82;;
25169;SDS011;13129;48.012;10.352;2022-10-18T17:18:14;5.45;;;4.60;;
25169;SDS011;13129;48.012;10.352;2022-10-18T17:20:42;6.28;;;4.65;;
25169;SDS011;13129;48.012;10.352;2022-10-18T17:23:08;9.57;;;5.20;;
25169;SDS011;13129;48.012;10.352;2022-10-18T17:25:35;7.05;;;5.47;;
25169;SDS011;13129;48.012;10.352;2022-10-18T17:28:03;8.00;;;5.97;;
25169;SDS011;13129;48.012;10.352;2022-10-18T17:30:30;7.60;;;5.45;;
25169;SDS011;13129;48.012;10.352;2022-10-18T17:32:55;7.82;;;5.68;;
25169;SDS011;13129;48.012;10.352;2022-10-18T17:35:21;6.75;;;5.20;;
25169;SDS011;13129;48.012;10.352;2022-10-18T17:37:47;6.72;;;4.72;;
25169;SDS011;13129;48.012;10.352;2022-10-18T17:40:13;9.05;;;5.55;;
25169;SDS011;13129;48.012;10.352;2022-10-18T17:42:39;7.55;;;4.80;;
25169;SDS011;13129;48.012;10.352;2022-10-18T17:45:05;6.28;;;4.95;;
25169;SDS011;13129;48.012;10.352;2022-10-18T17:47:31;6.35;;;4.93;;
25169;SDS011;13129;48.012;10.352;2022-10-18T17:49:57;6.30;;;4.90;;
25169;SDS011;13129;48.012;10.352;2022-10-18T17:52:22;5.95;;;5.35;;
25169;SDS011;13129;48.012;10.352;2022-10-18T17:54:48;5.57;;;4.50;;
25169;SDS011;13129;48.012;10.352;2022-10-18T17:57:13;8.40;;;7.28;;
25169;SDS011;13129;48.012;10.352;2022-10-18T17:59:40;10.57;;;9.55;;
25169;SDS011;13129;48.012;10.352;2022-10-18T18:02:06;11.85;;;10.65;;
25169;SDS011;13129;48.012;10.352;2022-10-18T18:04:32;15.38;;;12.90;;
25169;SDS011;13129;48.012;10.352;2022-10-18T18:06:58;14.63;;;12.60;;
25169;SDS011;13129;48.012;10.352;2022-10-18T18:09:24;11.32;;;9.77;;
25169;SDS011;13129;48.012;10.352;2022-10-18T18:11:51;10.45;;;9.38;;
25169;SDS011;13129;48.012;10.352;2022-10-18T18:14:17;13.57;;;12.23;;
25169;SDS011;13129;48.012;10.352;2022-10-18T18:16:44;12.18;;;10.68;;
25169;SDS011;13129;48.012;10.352;2022-10-18T18:19:11;13.65;;;9.95;;
25169;SDS011;13129;48.012;10.352;2022-10-18T18:21:38;11.63;;;9.25;;
25169;SDS011;13129;48.012;10.352;2022-10-18T18:24:04;9.10;;;7.47;;
25169;SDS011;13129;48.012;10.352;2022-10-18T18:26:31;8.82;;;6.70;;
25169;SDS011;13129;48.012;10.352;2022-10-18T18:28:57;9.75;;;7.60;;
25169;SDS011;13129;48.012;10.352;2022-10-18T18:31:24;9.40;;;8.40;;
25169;SDS011;13129;48.012;10.352;2022-10-18T18:33:51;10.75;;;8.07;;
25169;SDS011;13129;48.012;10.352;2022-10-18T18:36:18;9.90;;;8.63;;
25169;SDS011;13129;48.012;10.352;2022-10-18T18:38:44;9.55;;;7.93;;
25169;SDS011;13129;48.012;10.352;2022-10-18T18:41:12;11.48;;;8.80;;
25169;SDS011;13129;48.012;10.352;2022-10-18T18:43:42;10.75;;;8.48;;
25169;SDS011;13129;48.012;10.352;2022-10-18T18:46:10;9.45;;;8.32;;
25169;SDS011;13129;48.012;10.352;2022-10-18T18:48:39;10.10;;;8.88;;
25169;SDS011;13129;48.012;10.352;2022-10-18T18:51:07;9.90;;;8.88;;
25169;SDS011;13129;48.012;10.352;2022-10-18T18:53:39;11.50;;;8.70;;
25169;SDS011;13129;48.012;10.352;2022-10-18T18:56:07;9.90;;;8.38;;
25169;SDS011;13129;48.012;10.352;2022-10-18T18:58:38;10.23;;;9.05;;
25169;SDS011;13129;48.012;10.352;2022-10-18T19:01:12;12.95;;;11.18;;
25169;SDS011;13129;48.012;10.352;2022-10-18T19:03:43;10.38;;;8.73;;
25169;SDS011;13129;48.012;10.352;2022-10-18T19:06:11;10.30;;;9.00;;
25169;SDS011;13129;48.012;10.352;2022-10-18T19:08:42;12.73;;;9.07;;
25169;SDS011;13129;48.012;10.352;2022-10-18T19:11:17;10.85;;;8.48;;
25169;SDS011;13129;48.012;10.352;2022-10-18T19:14:02;10.73;;;9.60;;
25169;SDS011;13129;48.012;10.352;2022-10-18T19:16:30;9.90;;;8.90;;
25169;SDS011;13129;48.012;10.352;2022-10-18T19:19:06;11.18;;;8.43;;
25169;SDS011;13129;48.012;10.352;2022-10-18T19:21:38;10.63;;;9.45;;
25169;SDS011;13129;48.012;10.352;2022-10-18T19:24:05;11.75;;;10.48;;
25169;SDS011;13129;48.012;10.352;2022-10-18T19:26:39;12.80;;;10.27;;
25169;SDS011;13129;48.012;10.352;2022-10-18T19:31:43;11.07;;;9.82;;
25169;SDS011;13129;48.012;10.352;2022-10-18T19:34:10;9.90;;;8.77;;
25169;SDS011;13129;48.012;10.352;2022-10-18T19:36:38;9.77;;;8.80;;
25169;SDS011;13129;48.012;10.352;2022-10-18T19:39:07;12.68;;;8.80;;
25169;SDS011;13129;48.012;10.352;2022-10-18T19:41:36;12.57;;;10.70;;
25169;SDS011;13129;48.012;10.352;2022-10-18T19:44:02;13.55;;;10.85;;
25169;SDS011;13129;48.012;10.352;2022-10-18T19:46:27;9.75;;;8.02;;
25169;SDS011;13129;48.012;10.352;2022-10-18T19:48:53;8.70;;;7.75;;
25169;SDS011;13129;48.012;10.352;2022-10-18T19:51:20;12.95;;;9.32;;
25169;SDS011;13129;48.012;10.352;2022-10-18T19:53:48;11.00;;;9.75;;
25169;SDS011;13129;48.012;10.352;2022-10-18T19:56:16;11.60;;;10.27;;
25169;SDS011;13129;48.012;10.352;2022-10-18T19:58:47;11.10;;;10.00;;
25169;SDS011;13129;48.012;10.352;2022-10-18T20:01:13;11.68;;;10.50;;
25169;SDS011;13129;48.012;10.352;2022-10-18T20:03:40;13.65;;;10.65;;
25169;SDS011;13129;48.012;10.352;2022-10-18T20:06:06;13.05;;;8.93;;
25169;SDS011;13129;48.012;10.352;2022-10-18T20:08:32;10.75;;;9.43;;
25169;SDS011;13129;48.012;10.352;2022-10-18T20:10:59;11.55;;;9.45;;
25169;SDS011;13129;48.012;10.352;2022-10-18T20:13:26;13.15;;;10.52;;
25169;SDS011;13129;48.012;10.352;2022-10-18T20:15:52;14.07;;;10.35;;
25169;SDS011;13129;48.012;10.352;2022-10-18T20:18:18;11.90;;;9.82;;
25169;SDS011;13129;48.012;10.352;2022-10-18T20:20:44;10.60;;;9.45;;
25169;SDS011;13129;48.012;10.352;2022-10-18T20:23:11;7.72;;;6.88;;
25169;SDS011;13129;48.012;10.352;2022-10-18T20:25:37;6.18;;;5.57;;
25169;SDS011;13129;48.012;10.352;2022-10-18T20:28:03;9.98;;;5.15;;
25169;SDS011;13129;48.012;10.352;2022-10-18T20:30:29;42.65;;;8.23;;
25169;SDS011;13129;48.012;10.352;2022-10-18T20:32:55;14.00;;;6.25;;
25169;SDS011;13129;48.012;10.352;2022-10-18T20:35:21;6.55;;;4.55;;
25169;SDS011;13129;48.012;10.352;2022-10-18T20:37:47;8.45;;;4.78;;
25169;SDS011;13129;48.012;10.352;2022-10-18T20:40:13;9.77;;;4.90;;
25169;SDS011;13129;48.012;10.352;2022-10-18T20:42:39;6.53;;;4.90;;
25169;SDS011;13129;48.012;10.352;2022-10-18T20:45:05;4.82;;;4.43;;
25169;SDS011;13129;48.012;10.352;2022-10-18T20:47:32;3.80;;;3.50;;
25169;SDS011;13129;48.012;10.352;2022-10-18T20:49:59;4.88;;;4.47;;
25169;SDS011;13129;48.012;10.352;2022-10-18T20:52:25;6.03;;;4.75;;
25169;SDS011;13129;48.012;10.352;2022-10-18T20:54:51;6.25;;;5.32;;
25169;SDS011;13129;48.012;10.352;2022-10-18T20:57:16;8.10;;;7.30;;
25169;SDS011;13129;48.012;10.352;2022-10-18T20:59:42;7.68;;;6.88;;
25169;SDS011;13129;48.012;10.352;2022-10-18T21:02:09;7.43;;;6.72;;
25169;SDS011;13129;48.012;10.352;2022-10-18T21:04:38;7.57;;;6.20;;
25169;SDS011;13129;48.012;10.352;2022-10-18T21:07:06;7.13;;;6.38;;
25169;SDS011;13129;48.012;10.352;2022-10-18T21:09:32;3.67;;;2.80;;
25169;SDS011;13129;48.012;10.352;2022-10-18T21:11:57;3.38;;;2.22;;
25169;SDS011;13129;48.012;10.352;2022-10-18T21:14:23;2.30;;;2.10;;
25169;SDS011;13129;48.012;10.352;2022-10-18T21:16:50;1.90;;;1.80;;
25169;SDS011;13129;48.012;10.352;2022-10-18T21:19:18;5.47;;;3.20;;
25169;SDS011;13129;48.012;10.352;2022-10-18T21:21:46;3.65;;;2.10;;
25169;SDS011;13129;48.012;10.352;2022-10-18T21:24:14;12.23;;;3.20;;
25169;SDS011;13129;48.012;10.352;2022-10-18T21:26:41;12.20;;;3.92;;
25169;SDS011;13129;48.012;10.352;2022-10-18T21:29:08;3.83;;;3.45;;
25169;SDS011;13129;48.012;10.352;2022-10-18T21:31:36;2.97;;;2.55;;
25169;SDS011;13129;48.012;10.352;2022-10-18T21:34:07;3.50;;;3.20;;
25169;SDS011;13129;48.012;10.352;2022-10-18T21:36:37;5.63;;;3.15;;
25169;SDS011;13129;48.012;10.352;2022-10-18T21:39:04;3.80;;;3.00;;